createdAt,value
2022-08-17T00:00:44.113Z,16.10
2022-08-17T00:03:22.420Z,16.07
2022-08-17T00:06:07.654Z,16.01
2022-08-17T00:08:41.291Z,15.96
2022-08-17T00:11:14.892Z,15.91
2022-08-17T00:13:51.865Z,15.85
2022-08-17T00:16:55.348Z,15.81
2022-08-17T00:19:26.689Z,15.77
2022-08-17T00:22:31.784Z,15.75
2022-08-17T00:24:52.427Z,15.76
2022-08-17T00:27:22.399Z,15.75
2022-08-17T00:29:52.804Z,15.73
2022-08-17T00:33:12.248Z,15.65
2022-08-17T00:35:18.434Z,15.60
2022-08-17T00:37:48.712Z,15.56
2022-08-17T00:40:20.812Z,15.49
2022-08-17T00:42:55.630Z,15.44
2022-08-17T00:45:25.464Z,15.42
2022-08-17T00:47:56.656Z,15.41
2022-08-17T00:50:26.727Z,15.37
2022-08-17T00:52:58.448Z,15.34
2022-08-17T00:55:30.384Z,15.32
2022-08-17T00:58:06.061Z,15.30
2022-08-17T01:00:41.447Z,15.29
2022-08-17T01:03:17.154Z,15.27
2022-08-17T01:05:49.780Z,15.23
2022-08-17T01:08:25.784Z,15.21
2022-08-17T01:11:01.805Z,15.18
2022-08-17T01:13:42.829Z,15.13
2022-08-17T01:16:26.656Z,15.08
2022-08-17T01:19:01.146Z,15.04
2022-08-17T01:21:53.255Z,15.01
2022-08-17T01:24:23.776Z,14.99
2022-08-17T01:26:53.573Z,14.95
2022-08-17T01:29:31.709Z,14.93
2022-08-17T01:32:06.028Z,14.91
2022-08-17T01:34:42.676Z,14.90
2022-08-17T01:37:16.062Z,14.88
2022-08-17T01:39:55.409Z,14.87
2022-08-17T01:42:35.902Z,14.86
2022-08-17T01:45:21.274Z,14.84
2022-08-17T01:47:53.321Z,14.83
2022-08-17T01:50:31.138Z,14.83
2022-08-17T01:53:09.282Z,14.83
2022-08-17T01:55:58.457Z,14.80
2022-08-17T01:58:29.081Z,14.77
2022-08-17T02:01:01.470Z,14.74
2022-08-17T02:03:33.163Z,14.70
2022-08-17T02:06:03.713Z,14.67
2022-08-17T02:08:39.164Z,14.64
2022-08-17T02:11:28.746Z,14.63
2022-08-17T02:14:03.433Z,14.63
2022-08-17T02:16:38.218Z,14.63
2022-08-17T02:19:14.136Z,14.61
2022-08-17T02:21:48.521Z,14.61
2022-08-17T02:25:00.385Z,14.59
2022-08-17T02:27:31.260Z,14.58
2022-08-17T02:30:01.310Z,14.56
2022-08-17T02:32:31.605Z,14.54
2022-08-17T02:35:01.210Z,14.51
2022-08-17T02:37:30.701Z,14.50
2022-08-17T02:40:00.966Z,14.48
2022-08-17T02:42:34.347Z,14.48
2022-08-17T02:45:06.704Z,14.47
2022-08-17T02:47:37.608Z,14.46
2022-08-17T02:50:10.036Z,14.44
2022-08-17T02:53:02.369Z,14.43
2022-08-17T02:55:38.846Z,14.42
2022-08-17T02:58:11.603Z,14.42
2022-08-17T03:00:44.685Z,14.44
2022-08-17T03:03:19.415Z,14.45
2022-08-17T03:05:54.377Z,14.47
2022-08-17T03:08:26.001Z,14.48
2022-08-17T03:10:56.838Z,14.49
2022-08-17T03:13:27.873Z,14.50
2022-08-17T03:15:57.681Z,14.50
2022-08-17T03:18:28.847Z,14.50
2022-08-17T03:21:02.102Z,14.51
2022-08-17T03:23:33.283Z,14.51
2022-08-17T03:26:03.665Z,14.50
2022-08-17T03:28:42.587Z,14.49
2022-08-17T03:31:11.710Z,14.49
2022-08-17T03:33:40.817Z,14.51
2022-08-17T03:36:11.611Z,14.54
2022-08-17T03:38:41.472Z,14.58
2022-08-17T03:41:12.206Z,14.64
2022-08-17T03:43:42.877Z,14.68
2022-08-17T03:46:35.348Z,14.71
2022-08-17T03:49:25.865Z,14.78
2022-08-17T03:52:15.952Z,14.85
2022-08-17T03:55:04.966Z,14.90
2022-08-17T03:57:35.437Z,14.94
2022-08-17T04:00:05.969Z,14.98
2022-08-17T04:02:43.698Z,14.98
2022-08-17T04:05:12.758Z,14.99
2022-08-17T04:07:42.046Z,15.00
2022-08-17T04:10:11.665Z,15.04
2022-08-17T04:12:53.361Z,15.13
2022-08-17T04:15:23.476Z,15.24
2022-08-17T04:17:54.120Z,15.35
2022-08-17T04:20:25.324Z,15.45
2022-08-17T04:23:05.855Z,15.51
2022-08-17T04:25:37.143Z,15.57
2022-08-17T04:28:07.531Z,15.59
2022-08-17T04:30:46.210Z,15.58
2022-08-17T04:33:26.778Z,15.51
2022-08-17T04:36:03.019Z,15.43
2022-08-17T04:38:35.570Z,15.36
2022-08-17T04:41:24.155Z,15.30
2022-08-17T04:43:58.795Z,15.30
2022-08-17T04:46:33.535Z,15.36
2022-08-17T04:49:06.420Z,15.45
2022-08-17T04:51:54.734Z,15.64
2022-08-17T04:54:29.161Z,15.89
2022-08-17T04:56:58.610Z,16.04
2022-08-17T04:59:27.650Z,16.16
2022-08-17T05:01:56.557Z,16.27
2022-08-17T05:04:35.119Z,16.36
2022-08-17T05:07:04.903Z,16.46
2022-08-17T05:09:33.781Z,16.52
2022-08-17T05:12:03.344Z,16.58
2022-08-17T05:14:33.545Z,16.64
2022-08-17T05:17:09.658Z,16.71
2022-08-17T05:19:40.386Z,16.91
2022-08-17T05:22:09.576Z,17.18
2022-08-17T05:24:43.475Z,17.43
2022-08-17T05:27:23.456Z,17.51
2022-08-17T05:29:52.496Z,17.57
2022-08-17T05:32:48.324Z,17.52
2022-08-17T05:35:11.507Z,17.45
2022-08-17T05:37:40.182Z,17.52
2022-08-17T05:40:10.760Z,17.62
2022-08-17T05:42:39.579Z,17.70
2022-08-17T05:45:08.808Z,17.73
2022-08-17T05:47:40.146Z,17.80
2022-08-17T05:50:10.855Z,17.86
2022-08-17T05:52:56.817Z,17.95
2022-08-17T05:55:49.426Z,18.04
2022-08-17T05:58:47.096Z,18.06
2022-08-17T06:01:22.713Z,18.14
2022-08-17T06:04:35.564Z,18.26
2022-08-17T06:07:29.848Z,18.38
2022-08-17T06:10:17.999Z,18.51
2022-08-17T06:13:05.930Z,18.67
2022-08-17T06:15:54.274Z,18.87
2022-08-17T06:18:29.002Z,19.07
2022-08-17T06:21:02.502Z,19.26
2022-08-17T06:23:38.260Z,19.42
2022-08-17T06:26:37.374Z,19.53
2022-08-17T06:29:36.035Z,19.70
2022-08-17T06:32:10.266Z,19.90
2022-08-17T06:34:44.035Z,20.04
2022-08-17T06:37:27.904Z,20.30
2022-08-17T06:40:12.759Z,20.72
2022-08-17T06:43:05.830Z,20.89
2022-08-17T06:45:42.186Z,20.96
2022-08-17T06:48:43.134Z,21.43
2022-08-17T06:51:18.777Z,21.93
2022-08-17T06:54:07.638Z,22.28
2022-08-17T06:56:57.961Z,22.55
2022-08-17T06:59:56.259Z,22.60
2022-08-17T07:02:29.409Z,22.74
2022-08-17T07:05:19.852Z,22.88
2022-08-17T07:08:02.406Z,23.27
2022-08-17T07:10:43.745Z,23.79
2022-08-17T07:13:34.191Z,23.99
2022-08-17T07:16:34.003Z,24.02
2022-08-17T07:19:04.533Z,24.26
2022-08-17T07:22:14.378Z,24.06
2022-08-17T07:24:49.006Z,24.31
2022-08-17T07:27:27.843Z,24.35
2022-08-17T07:30:11.107Z,24.19
2022-08-17T07:32:45.579Z,24.27
2022-08-17T07:35:31.296Z,24.05
2022-08-17T07:38:24.708Z,24.27
2022-08-17T07:40:58.235Z,24.41
2022-08-17T07:43:42.649Z,24.53
2022-08-17T07:46:31.420Z,24.81
2022-08-17T07:49:08.929Z,25.19
2022-08-17T07:51:46.015Z,25.68
2022-08-17T07:54:22.745Z,26.29
2022-08-17T07:56:53.930Z,26.78
2022-08-17T07:59:33.765Z,27.00
2022-08-17T08:02:07.223Z,27.42
2022-08-17T08:05:00.631Z,27.74
2022-08-17T08:07:36.383Z,28.11
2022-08-17T08:10:16.341Z,28.43
2022-08-17T08:13:01.101Z,28.89
2022-08-17T08:15:44.985Z,28.79
2022-08-17T08:18:38.673Z,28.50
2022-08-17T08:21:33.512Z,28.75
2022-08-17T08:24:31.389Z,28.71
2022-08-17T08:27:12.045Z,28.65
2022-08-17T08:29:54.861Z,28.45
2022-08-17T08:32:50.977Z,28.50
2022-08-17T08:35:31.453Z,28.57
2022-08-17T08:38:27.172Z,28.57
2022-08-17T08:41:19.486Z,28.44
2022-08-17T08:44:01.111Z,28.26
2022-08-17T08:47:07.543Z,28.36
2022-08-17T08:50:03.895Z,28.79
2022-08-17T08:52:36.497Z,29.04
2022-08-17T08:55:20.431Z,29.20
2022-08-17T08:57:55.775Z,29.56
2022-08-17T09:00:26.770Z,29.71
2022-08-17T09:03:52.430Z,29.81
2022-08-17T09:06:39.422Z,30.06
2022-08-17T09:10:00.048Z,29.95
2022-08-17T09:12:45.242Z,30.22
2022-08-17T09:15:46.163Z,30.52
2022-08-17T09:19:01.661Z,30.70
2022-08-17T09:21:33.873Z,30.74
2022-08-17T09:24:20.703Z,30.83
2022-08-17T09:27:03.645Z,31.10
2022-08-17T09:29:37.043Z,31.39
2022-08-17T09:32:33.273Z,31.34
2022-08-17T09:35:08.814Z,31.47
2022-08-17T09:38:05.455Z,31.60
2022-08-17T09:41:16.330Z,30.40
2022-08-17T09:44:23.597Z,30.66
2022-08-17T09:47:00.394Z,30.38
2022-08-17T09:49:35.096Z,30.10
2022-08-17T09:52:26.972Z,29.92
2022-08-17T09:54:58.888Z,29.71
2022-08-17T09:57:34.579Z,29.48
2022-08-17T10:00:13.998Z,29.12
2022-08-17T10:02:42.650Z,28.68
2022-08-17T10:05:38.103Z,28.56
2022-08-17T10:08:15.711Z,28.48
2022-08-17T10:10:52.229Z,28.56
2022-08-17T10:13:53.488Z,28.76
2022-08-17T10:16:38.547Z,28.80
2022-08-17T10:19:45.061Z,28.67
2022-08-17T10:22:52.651Z,28.33
2022-08-17T10:25:54.526Z,28.37
2022-08-17T10:28:30.645Z,28.64
2022-08-17T10:31:33.281Z,28.83
2022-08-17T10:33:58.053Z,29.12
2022-08-17T10:36:46.790Z,28.99
2022-08-17T10:39:33.774Z,28.93
2022-08-17T10:42:30.493Z,29.44
2022-08-17T10:45:22.189Z,29.85
2022-08-17T10:48:18.938Z,30.54
2022-08-17T10:50:57.962Z,30.21
2022-08-17T10:53:32.496Z,30.55
2022-08-17T10:56:13.742Z,30.75
2022-08-17T10:59:00.543Z,31.17
2022-08-17T11:01:38.479Z,31.09
2022-08-17T11:04:25.193Z,30.74
2022-08-17T11:07:06.261Z,30.69
2022-08-17T11:09:36.585Z,31.58
2022-08-17T11:12:42.265Z,32.28
2022-08-17T11:15:26.178Z,32.79
2022-08-17T11:18:29.064Z,33.41
2022-08-17T11:21:35.124Z,33.40
2022-08-17T11:24:20.683Z,33.80
2022-08-17T11:27:13.967Z,33.56
2022-08-17T11:30:01.440Z,32.34
2022-08-17T11:32:47.598Z,32.64
2022-08-17T11:35:23.134Z,32.60
2022-08-17T11:38:25.209Z,32.64
2022-08-17T11:41:27.892Z,32.04
2022-08-17T11:44:08.147Z,31.16
2022-08-17T11:47:19.124Z,31.49
2022-08-17T11:50:36.727Z,31.89
2022-08-17T11:53:06.733Z,32.39
2022-08-17T11:55:38.550Z,32.90
2022-08-17T11:58:37.627Z,33.51
2022-08-17T12:01:32.931Z,33.96
2022-08-17T12:04:34.021Z,33.95
2022-08-17T12:07:21.612Z,34.21
2022-08-17T12:09:53.986Z,34.15
2022-08-17T12:12:33.366Z,34.24
2022-08-17T12:15:12.133Z,34.13
2022-08-17T12:17:42.852Z,34.00
2022-08-17T12:20:23.707Z,34.29
2022-08-17T12:23:01.747Z,34.33
2022-08-17T12:25:49.789Z,34.45
2022-08-17T12:28:37.119Z,34.20
2022-08-17T12:31:25.249Z,33.80
2022-08-17T12:33:54.359Z,33.82
2022-08-17T12:36:26.171Z,33.65
2022-08-17T12:39:13.088Z,33.64
2022-08-17T12:41:47.282Z,33.63
2022-08-17T12:44:17.862Z,33.25
2022-08-17T12:46:46.447Z,33.29
2022-08-17T12:49:36.715Z,33.21
2022-08-17T12:52:20.277Z,32.74
2022-08-17T12:55:11.795Z,32.22
2022-08-17T12:57:47.751Z,32.26
2022-08-17T13:00:22.179Z,31.96
2022-08-17T13:03:17.375Z,31.99
2022-08-17T13:06:07.874Z,31.72
2022-08-17T13:08:40.348Z,31.24
2022-08-17T13:11:15.284Z,30.99
2022-08-17T13:13:46.963Z,30.86
2022-08-17T13:16:18.181Z,30.64
2022-08-17T13:18:48.914Z,30.51
2022-08-17T13:21:20.070Z,30.36
2022-08-17T13:24:11.275Z,30.12
2022-08-17T13:26:57.464Z,29.65
2022-08-17T13:29:31.793Z,29.57
2022-08-17T13:32:13.353Z,29.41
2022-08-17T13:35:13.124Z,29.04
2022-08-17T13:37:37.266Z,28.71
2022-08-17T13:40:11.999Z,28.24
2022-08-17T13:42:50.295Z,27.61
2022-08-17T13:45:39.606Z,27.04
2022-08-17T13:48:17.477Z,26.40
2022-08-17T13:50:48.311Z,25.99
2022-08-17T13:53:24.577Z,25.74
2022-08-17T13:55:59.813Z,25.61
2022-08-17T13:58:34.236Z,25.56
2022-08-17T14:01:30.333Z,25.53
2022-08-17T14:04:01.556Z,25.54
2022-08-17T14:06:51.963Z,25.55
2022-08-17T14:09:47.828Z,25.57
2022-08-17T14:12:20.330Z,25.81
2022-08-17T14:14:50.117Z,26.09
2022-08-17T14:17:19.828Z,26.27
2022-08-17T14:19:48.613Z,26.30
2022-08-17T14:22:45.252Z,26.37
2022-08-17T14:25:33.397Z,26.53
2022-08-17T14:28:02.184Z,26.67
2022-08-17T14:30:31.381Z,26.69
2022-08-17T14:33:00.062Z,26.66
2022-08-17T14:35:29.978Z,26.62
2022-08-17T14:37:58.743Z,26.57
2022-08-17T14:40:28.474Z,26.48
2022-08-17T14:42:58.284Z,26.27
2022-08-17T14:45:33.263Z,25.92
2022-08-17T14:48:05.919Z,25.66
2022-08-17T14:50:36.728Z,25.54
2022-08-17T14:53:08.193Z,25.36
2022-08-17T14:55:40.145Z,25.24
2022-08-17T14:58:09.408Z,25.17
2022-08-17T15:00:41.410Z,25.20
2022-08-17T15:03:11.760Z,25.29
2022-08-17T15:05:40.525Z,25.38
2022-08-17T15:08:09.306Z,25.51
2022-08-17T15:10:39.531Z,25.69
2022-08-17T15:13:21.629Z,25.86
2022-08-17T15:15:50.926Z,26.09
2022-08-17T15:18:19.840Z,26.29
2022-08-17T15:20:50.341Z,26.45
2022-08-17T15:23:22.212Z,26.54
2022-08-17T15:25:53.155Z,26.58
2022-08-17T15:28:23.256Z,26.59
2022-08-17T15:30:53.540Z,26.63
2022-08-17T15:33:34.631Z,26.62
2022-08-17T15:36:09.190Z,26.51
2022-08-17T15:38:39.592Z,26.37
2022-08-17T15:41:10.113Z,26.22
2022-08-17T15:43:38.626Z,26.11
2022-08-17T15:46:12.493Z,25.99
2022-08-17T15:48:43.189Z,25.77
2022-08-17T15:51:22.782Z,25.59
2022-08-17T15:53:59.892Z,25.40
2022-08-17T15:56:33.494Z,25.17
2022-08-17T15:59:02.484Z,24.97
2022-08-17T16:03:14.041Z,24.77
2022-08-17T16:04:30.005Z,24.48
2022-08-17T16:07:00.526Z,24.26
2022-08-17T16:09:29.288Z,24.05
2022-08-17T16:12:00.005Z,23.89
2022-08-17T16:14:34.084Z,23.68
2022-08-17T16:17:40.231Z,23.47
2022-08-17T16:19:56.378Z,23.24
2022-08-17T16:22:40.324Z,23.04
2022-08-17T16:25:16.484Z,22.86
2022-08-17T16:27:46.519Z,22.73
2022-08-17T16:30:17.618Z,22.60
2022-08-17T16:32:48.470Z,22.47
2022-08-17T16:35:18.476Z,22.32
2022-08-17T16:37:47.792Z,22.23
2022-08-17T16:40:17.392Z,22.12
2022-08-17T16:42:47.149Z,21.99
2022-08-17T16:45:21.124Z,21.84
2022-08-17T16:47:50.501Z,21.68
2022-08-17T16:50:21.977Z,21.48
2022-08-17T16:52:51.781Z,21.30
2022-08-17T16:55:22.954Z,21.16
2022-08-17T16:57:51.514Z,21.02
2022-08-17T17:00:21.332Z,20.92
2022-08-17T17:02:50.373Z,20.83
2022-08-17T17:05:22.589Z,20.77
2022-08-17T17:08:03.869Z,20.73
2022-08-17T17:10:55.802Z,20.68
2022-08-17T17:13:26.488Z,20.63
2022-08-17T17:16:09.761Z,20.59
2022-08-17T17:18:48.581Z,20.55
2022-08-17T17:21:22.901Z,20.52
2022-08-17T17:24:00.081Z,20.49
2022-08-17T17:26:28.593Z,20.44
2022-08-17T17:29:14.502Z,20.39
2022-08-17T17:31:55.132Z,20.31
2022-08-17T17:34:26.277Z,20.25
2022-08-17T17:36:59.042Z,20.23
2022-08-17T17:39:56.165Z,20.23
2022-08-17T17:42:31.887Z,20.19
2022-08-17T17:45:07.902Z,20.17
2022-08-17T17:47:37.219Z,20.16
2022-08-17T17:50:07.693Z,20.03
2022-08-17T17:52:58.797Z,19.82
2022-08-17T17:56:08.904Z,19.65
2022-08-17T17:59:26.942Z,19.56
2022-08-17T18:02:35.975Z,19.54
2022-08-17T18:05:31.999Z,19.52
2022-08-17T18:08:10.763Z,19.54
2022-08-17T18:10:55.181Z,19.55
2022-08-17T18:13:53.763Z,19.58
2022-08-17T18:16:23.572Z,19.59
2022-08-17T18:18:53.091Z,19.59
2022-08-17T18:21:23.134Z,19.59
2022-08-17T18:24:07.352Z,19.62
2022-08-17T18:26:44.947Z,19.60
2022-08-17T18:29:37.589Z,19.57
2022-08-17T18:32:26.497Z,19.54
2022-08-17T18:34:59.105Z,19.51
2022-08-17T18:37:36.424Z,19.47
2022-08-17T18:40:18.702Z,19.43
2022-08-17T18:43:03.582Z,19.37
2022-08-17T18:45:50.742Z,19.26
2022-08-17T18:48:33.400Z,19.20
2022-08-17T18:51:21.280Z,19.14
2022-08-17T18:54:24.455Z,19.08
2022-08-17T18:56:58.332Z,19.02
2022-08-17T18:59:41.680Z,19.01
2022-08-17T19:02:33.659Z,18.98
2022-08-17T19:05:39.670Z,18.96
2022-08-17T19:08:17.776Z,18.93
2022-08-17T19:10:53.540Z,18.92
2022-08-17T19:13:29.485Z,18.90
2022-08-17T19:16:14.643Z,18.89
2022-08-17T19:18:52.893Z,18.88
2022-08-17T19:21:33.227Z,18.87
2022-08-17T19:24:21.570Z,18.85
2022-08-17T19:27:12.383Z,18.83
2022-08-17T19:30:07.517Z,18.80
2022-08-17T19:32:37.190Z,18.77
2022-08-17T19:35:15.033Z,18.73
2022-08-17T19:37:59.040Z,18.68
2022-08-17T19:40:54.065Z,18.65
2022-08-17T19:43:23.031Z,18.63
2022-08-17T19:46:06.348Z,18.63
2022-08-17T19:48:40.580Z,18.64
2022-08-17T19:51:20.731Z,18.62
2022-08-17T19:54:04.801Z,18.63
2022-08-17T19:56:49.434Z,18.63
2022-08-17T20:00:03.174Z,18.64
2022-08-17T20:02:50.396Z,18.63
2022-08-17T20:06:08.429Z,18.65
2022-08-17T20:08:38.698Z,18.65
2022-08-17T20:11:12.065Z,18.67
2022-08-17T20:13:50.071Z,18.68
2022-08-17T20:16:20.490Z,18.69
2022-08-17T20:19:07.505Z,18.69
2022-08-17T20:21:44.994Z,18.69
2022-08-17T20:24:41.330Z,18.70
2022-08-17T20:27:12.782Z,18.70
2022-08-17T20:29:59.691Z,18.68
2022-08-17T20:32:33.570Z,18.66
2022-08-17T20:35:24.749Z,18.66
2022-08-17T20:37:58.319Z,18.67
2022-08-17T20:40:40.314Z,18.68
2022-08-17T20:43:30.394Z,18.68
2022-08-17T20:46:02.767Z,18.68
2022-08-17T20:48:39.814Z,18.66
2022-08-17T20:51:27.686Z,18.60
2022-08-17T20:53:59.133Z,18.55
2022-08-17T20:56:57.965Z,18.51
2022-08-17T20:59:27.951Z,18.42
2022-08-17T21:02:12.369Z,18.35
2022-08-17T21:04:50.837Z,18.29
2022-08-17T21:07:32.956Z,18.26
2022-08-17T21:10:14.411Z,18.21
2022-08-17T21:12:52.550Z,18.16
2022-08-17T21:15:33.174Z,18.13
2022-08-17T21:18:20.864Z,18.09
2022-08-17T21:21:07.919Z,18.06
2022-08-17T21:23:57.598Z,18.04
2022-08-17T21:26:50.293Z,18.01
2022-08-17T21:29:31.244Z,17.96
2022-08-17T21:32:05.490Z,17.91
2022-08-17T21:34:42.829Z,17.88
2022-08-17T21:37:20.727Z,17.84
2022-08-17T21:39:56.028Z,17.78
2022-08-17T21:42:33.778Z,17.75
2022-08-17T21:45:29.083Z,17.73
2022-08-17T21:48:24.678Z,17.72
2022-08-17T21:51:14.852Z,17.70
2022-08-17T21:53:45.205Z,17.69
2022-08-17T21:56:35.905Z,17.68
2022-08-17T21:59:27.640Z,17.68
2022-08-17T22:02:07.898Z,17.66
2022-08-17T22:04:42.718Z,17.64
2022-08-17T22:07:14.070Z,17.62
2022-08-17T22:09:46.475Z,17.61
2022-08-17T22:12:24.840Z,17.58
2022-08-17T22:14:56.408Z,17.55
2022-08-17T22:17:39.405Z,17.52
2022-08-17T22:20:15.331Z,17.48
2022-08-17T22:23:05.475Z,17.43
2022-08-17T22:25:41.222Z,17.42
2022-08-17T22:28:12.604Z,17.41
2022-08-17T22:30:58.662Z,17.42
2022-08-17T22:33:33.913Z,17.38
2022-08-17T22:36:23.172Z,17.36
2022-08-17T22:39:02.708Z,17.35
2022-08-17T22:41:34.882Z,17.32
2022-08-17T22:44:17.569Z,17.31
2022-08-17T22:47:12.290Z,17.30
2022-08-17T22:50:03.451Z,17.29
2022-08-17T22:52:56.872Z,17.28
2022-08-17T22:55:46.857Z,17.28
2022-08-17T22:58:37.782Z,17.29
2022-08-17T23:01:26.617Z,17.29
2022-08-17T23:04:11.678Z,17.27
2022-08-17T23:06:44.955Z,17.25
2022-08-17T23:09:14.238Z,17.24
2022-08-17T23:11:49.582Z,17.23
2022-08-17T23:14:21.544Z,17.22
2022-08-17T23:16:51.610Z,17.22
2022-08-17T23:19:22.106Z,17.20
2022-08-17T23:21:53.307Z,17.16
2022-08-17T23:24:27.297Z,17.13
2022-08-17T23:26:58.545Z,17.10
2022-08-17T23:29:29.978Z,17.07
2022-08-17T23:32:01.875Z,17.02
2022-08-17T23:34:32.688Z,16.98
2022-08-17T23:37:03.015Z,16.94
2022-08-17T23:39:33.455Z,16.90
2022-08-17T23:42:08.623Z,16.88
2022-08-17T23:44:39.919Z,16.86
2022-08-17T23:47:10.472Z,16.82
2022-08-17T23:49:41.963Z,16.78
2022-08-17T23:52:16.434Z,16.74
2022-08-17T23:54:47.849Z,16.73
2022-08-17T23:57:33.733Z,16.74
